Overview Statistics Trail Chart Weather Telemetry Raw packets
 

This is the latest recevied packets stored in our database for station/object DK6MM-99. If no packets are shown the sender has not sent any packets the latest 24 hours.

If you compare the raw packets with similar data from other websites it may differ (especially the path), the reason is that we are not collecting packets from the same APRS-IS servers. Each APRS-IS server performes duplicate filtering, and which packet that is considered to be a duplicate may differ depending on which APRS-IS server you receive your data from.

<< 1 2 3 >>

1788561059: DK6MM-99>APRSMC,TCPIP*,qAR,DB0NH-3:T#250,965.2,16.3,76.4,1018.0,0.0,00000000

1788561059: DK6MM-99>APRSMC,TCPIP*,qAR,DB0NH-3:!5017.22N/01105.22E#Meshcom OV B19#DK6MM-99/B=100

1788557429: DK6MM-99>APRSMC,TCPIP*,qAR,DB0NH-3:!5017.22N/01105.22E#Meshcom OV B19#DK6MM-99/B=100

1788557429: DK6MM-99>APRSMC,TCPIP*,qAR,DB0NH-3:T#249,964.4,17.0,78.0,1017.1,0.0,00000000

1788555615: DK6MM-99>APRSMC,TCPIP*,qAR,DO8TBO-12:T#248,963.2,20.0,75.6,1015.2,0.0,00000000

1788555615: DK6MM-99>APRSMC,TCPIP*,qAR,DO8TBO-12:!5017.22N/01105.22E#Meshcom OV B19#DK6MM-99/B=100

1788551983: DK6MM-99>APRSMC,TCPIP*,qAR,DB0NH-3:T#247,961.9,23.0,72.2,1013.3,0.0,00000000

1788551983: DK6MM-99>APRSMC,TCPIP*,qAR,DB0NH-3:!5017.22N/01105.22E#Meshcom OV B19#DK6MM-99/B=100

1788548359: DK6MM-99>APRSMC,TCPIP*,qAR,DB0NH-3:T#246,961.4,23.5,72.4,1012.7,0.0,00000000

1788548359: DK6MM-99>APRSMC,TCPIP*,qAR,DB0NH-3:!5017.22N/01105.22E#Meshcom OV B19#DK6MM-99/B=100

1788542941: DK6MM-99>APRSMC,TCPIP*,qAR,DB0NH-3:T#245,961.0,24.5,73.9,1012.1,0.0,00000000

1788542941: DK6MM-99>APRSMC,TCPIP*,qAR,DB0NH-3:!5017.22N/01105.22E#Meshcom OV B19#DK6MM-99/B=100

1788539278: DK6MM-99>APRSMC,TCPIP*,qAR,DB0NH-3:T#244,961.2,25.8,73.0,1012.1,0.0,00000000

1788539278: DK6MM-99>APRSMC,TCPIP*,qAR,DB0NH-3:!5017.22N/01105.22E#Meshcom OV B19#DK6MM-99/B=100

1788537472: DK6MM-99>APRSMC,TCPIP*,qAR,DO8TBO-12:T#243,961.4,25.3,75.0,1012.4,0.0,00000000

1788537472: DK6MM-99>APRSMC,TCPIP*,qAR,DO8TBO-12:!5017.22N/01105.22E#Meshcom OV B19#DK6MM-99/B=100

1788535655: DK6MM-99>APRSMC,TCPIP*,qAR,DB0NH-3:T#242,961.3,26.3,73.5,1012.1,0.0,00000000

1788535655: DK6MM-99>APRSMC,TCPIP*,qAR,DB0NH-3:!5017.22N/01105.22E#Meshcom OV B19#DK6MM-99/B=100

1788533836: DK6MM-99>APRSMC,TCPIP*,qAR,DB0NH-3:T#241,961.4,26.6,73.2,1012.1,0.0,00000000

1788533836: DK6MM-99>APRSMC,TCPIP*,qAR,DB0NH-3::DK6MM-99 :UNIT.hPa,C deg,%,hPa,C deg,Y/N,O/N,O/N,O/N,O/N,O/N,O/N,O/N

1788533836: DK6MM-99>APRSMC,TCPIP*,qAR,DB0NH-3::DK6MM-99 :EQNS.0,1,0,0,1,0,0,1,0,0,1,0,0,1,0

1788533836: DK6MM-99>APRSMC,TCPIP*,qAR,DB0NH-3::DK6MM-99 :PARM.Press,Temp.in,Hum,QNH,Temp.out,track,-,-,-,-,-,-,-

1788533836: DK6MM-99>APRSMC,TCPIP*,qAR,DB0NH-3:!5017.22N/01105.22E#Meshcom OV B19#DK6MM-99/B=100

1788532023: DK6MM-99>APRSMC,TCPIP*,qAR,DB0NH-3:T#240,961.5,26.4,75.7,1012.4,0.0,00000000

1788532023: DK6MM-99>APRSMC,TCPIP*,qAR,DB0NH-3:!5017.22N/01105.22E#Meshcom OV B19#DK6MM-99/B=100